Country
Station

 

Weather  for  Elmira, Elmira/Corning Regional Airport  -  United States    United States

  
22 °C (72 °F)
    
 
 

Current METAR for Elmira, Elmira/Corning Regional Airport is :

KELM 171053Z 00000KT 10SM OVC021 22/21 A2986 RMK AO2 RAE21 SLP102 P0000 T02170211

 

This is a report for Elmira, Elmira/Corning Regional Airport - United States.
 
The report was made 10 minutes ago, at 10:53 UTC .
The wind was calm.
 
The temperature was 22 °C (72 °F), with a dew-point at 21 °C (70 °F).
The temperature felt like 20 °C (68 °F).
 
The atmospheric pressure was 1011 hPa (29.86 inHg).
The relative humidity was 94.1%.
 
The sky was overcast from a height of 640 meter (2100 feet)
 
The overall visibility was 16.1 kilometers (10.0 miles).
 

 
 
 
 

Country :   A   B   C   D   E   F   G   H   I   J   K   L   M   N   O   P   Q   R   S   T   U   V   W   Y   Z

 

Site Info  |  Disclaimer  |  Credits  |  Privacy
Contact us  |  Add to favorites
© 2013-2018 METARs - All rights reserved